sensor_id;sensor_type;location;lat;lon;timestamp;temperature;humidity
80234;DHT22;69712;42.142;24.766;2023-05-13T00:01:15;11.60;50.30
80234;DHT22;69712;42.142;24.766;2023-05-13T00:03:42;11.70;49.70
80234;DHT22;69712;42.142;24.766;2023-05-13T00:06:07;11.70;49.70
80234;DHT22;69712;42.142;24.766;2023-05-13T00:08:33;11.60;50.00
80234;DHT22;69712;42.142;24.766;2023-05-13T00:10:59;11.80;49.90
80234;DHT22;69712;42.142;24.766;2023-05-13T00:13:25;11.80;49.80
80234;DHT22;69712;42.142;24.766;2023-05-13T00:15:51;11.80;49.60
80234;DHT22;69712;42.142;24.766;2023-05-13T00:18:18;11.80;49.80
80234;DHT22;69712;42.142;24.766;2023-05-13T00:20:43;11.80;49.60
80234;DHT22;69712;42.142;24.766;2023-05-13T00:23:09;11.90;49.90
80234;DHT22;69712;42.142;24.766;2023-05-13T00:25:36;11.90;49.70
80234;DHT22;69712;42.142;24.766;2023-05-13T00:28:02;11.80;49.90
80234;DHT22;69712;42.142;24.766;2023-05-13T00:30:28;11.80;50.10
80234;DHT22;69712;42.142;24.766;2023-05-13T00:32:54;11.90;50.10
80234;DHT22;69712;42.142;24.766;2023-05-13T00:35:20;11.80;50.50
80234;DHT22;69712;42.142;24.766;2023-05-13T00:37:46;12.00;50.10
80234;DHT22;69712;42.142;24.766;2023-05-13T00:40:22;12.00;50.10
80234;DHT22;69712;42.142;24.766;2023-05-13T00:42:48;11.50;51.10
80234;DHT22;69712;42.142;24.766;2023-05-13T00:45:14;11.20;52.40
80234;DHT22;69712;42.142;24.766;2023-05-13T00:47:41;11.10;53.50
80234;DHT22;69712;42.142;24.766;2023-05-13T00:50:08;11.10;53.50
80234;DHT22;69712;42.142;24.766;2023-05-13T00:52:36;11.20;52.90
80234;DHT22;69712;42.142;24.766;2023-05-13T00:55:02;11.40;52.90
80234;DHT22;69712;42.142;24.766;2023-05-13T00:57:29;11.30;53.10
80234;DHT22;69712;42.142;24.766;2023-05-13T00:59:55;11.30;53.60
80234;DHT22;69712;42.142;24.766;2023-05-13T01:08:23;11.40;53.50
80234;DHT22;69712;42.142;24.766;2023-05-13T01:11:28;11.60;52.60
80234;DHT22;69712;42.142;24.766;2023-05-13T01:14:10;11.80;52.00
80234;DHT22;69712;42.142;24.766;2023-05-13T01:16:48;11.70;51.90
80234;DHT22;69712;42.142;24.766;2023-05-13T01:21:58;11.70;52.50
80234;DHT22;69712;42.142;24.766;2023-05-13T01:24:23;11.70;52.20
80234;DHT22;69712;42.142;24.766;2023-05-13T01:26:49;11.80;51.90
80234;DHT22;69712;42.142;24.766;2023-05-13T01:29:15;11.70;52.30
80234;DHT22;69712;42.142;24.766;2023-05-13T01:31:41;11.80;52.40
80234;DHT22;69712;42.142;24.766;2023-05-13T01:34:08;11.70;52.60
80234;DHT22;69712;42.142;24.766;2023-05-13T01:36:37;11.70;53.20
80234;DHT22;69712;42.142;24.766;2023-05-13T01:39:04;11.70;53.00
80234;DHT22;69712;42.142;24.766;2023-05-13T01:41:30;11.70;53.00
80234;DHT22;69712;42.142;24.766;2023-05-13T01:43:56;11.70;53.30
80234;DHT22;69712;42.142;24.766;2023-05-13T01:46:22;11.50;53.30
80234;DHT22;69712;42.142;24.766;2023-05-13T01:48:47;11.80;52.50
80234;DHT22;69712;42.142;24.766;2023-05-13T01:51:13;11.70;52.90
80234;DHT22;69712;42.142;24.766;2023-05-13T01:53:39;11.60;53.10
80234;DHT22;69712;42.142;24.766;2023-05-13T01:56:08;11.60;53.50
80234;DHT22;69712;42.142;24.766;2023-05-13T01:58:34;11.50;54.20
80234;DHT22;69712;42.142;24.766;2023-05-13T02:00:59;11.60;53.50
80234;DHT22;69712;42.142;24.766;2023-05-13T02:03:25;11.80;53.30
80234;DHT22;69712;42.142;24.766;2023-05-13T02:05:51;11.80;53.60
80234;DHT22;69712;42.142;24.766;2023-05-13T02:08:16;11.80;53.80
80234;DHT22;69712;42.142;24.766;2023-05-13T02:10:42;12.00;53.40
80234;DHT22;69712;42.142;24.766;2023-05-13T02:13:08;12.10;52.90
80234;DHT22;69712;42.142;24.766;2023-05-13T02:15:33;12.10;52.70
80234;DHT22;69712;42.142;24.766;2023-05-13T02:17:59;12.00;53.20
80234;DHT22;69712;42.142;24.766;2023-05-13T02:20:25;12.30;52.40
80234;DHT22;69712;42.142;24.766;2023-05-13T02:22:51;12.40;52.30
80234;DHT22;69712;42.142;24.766;2023-05-13T02:25:16;12.30;52.60
80234;DHT22;69712;42.142;24.766;2023-05-13T02:27:42;12.20;53.00
80234;DHT22;69712;42.142;24.766;2023-05-13T02:30:08;12.10;53.20
80234;DHT22;69712;42.142;24.766;2023-05-13T02:32:34;12.10;53.50
80234;DHT22;69712;42.142;24.766;2023-05-13T02:35:00;12.20;53.50
80234;DHT22;69712;42.142;24.766;2023-05-13T02:37:25;12.10;53.40
80234;DHT22;69712;42.142;24.766;2023-05-13T02:39:51;12.10;53.70
80234;DHT22;69712;42.142;24.766;2023-05-13T02:42:17;11.90;54.40
80234;DHT22;69712;42.142;24.766;2023-05-13T02:44:43;11.90;54.20
80234;DHT22;69712;42.142;24.766;2023-05-13T02:47:09;11.80;54.90
80234;DHT22;69712;42.142;24.766;2023-05-13T02:49:34;12.00;54.50
80234;DHT22;69712;42.142;24.766;2023-05-13T02:52:00;12.00;54.70
80234;DHT22;69712;42.142;24.766;2023-05-13T02:54:27;12.10;54.30
80234;DHT22;69712;42.142;24.766;2023-05-13T02:56:52;12.10;54.40
80234;DHT22;69712;42.142;24.766;2023-05-13T02:59:18;12.20;54.50
80234;DHT22;69712;42.142;24.766;2023-05-13T03:01:44;12.30;54.10
80234;DHT22;69712;42.142;24.766;2023-05-13T03:04:09;12.20;54.60
80234;DHT22;69712;42.142;24.766;2023-05-13T03:06:35;12.00;55.30
80234;DHT22;69712;42.142;24.766;2023-05-13T03:09:01;12.10;55.00
80234;DHT22;69712;42.142;24.766;2023-05-13T03:11:26;12.30;54.40
80234;DHT22;69712;42.142;24.766;2023-05-13T03:13:52;12.20;54.30
80234;DHT22;69712;42.142;24.766;2023-05-13T03:16:18;12.30;54.70
80234;DHT22;69712;42.142;24.766;2023-05-13T03:18:43;12.40;54.10
80234;DHT22;69712;42.142;24.766;2023-05-13T03:21:09;12.60;53.70
80234;DHT22;69712;42.142;24.766;2023-05-13T03:23:35;12.70;53.80
80234;DHT22;69712;42.142;24.766;2023-05-13T03:26:02;12.70;53.40
80234;DHT22;69712;42.142;24.766;2023-05-13T03:28:27;12.60;53.80
80234;DHT22;69712;42.142;24.766;2023-05-13T03:30:53;12.70;53.80
80234;DHT22;69712;42.142;24.766;2023-05-13T03:33:19;12.90;53.30
80234;DHT22;69712;42.142;24.766;2023-05-13T03:35:44;12.90;53.30
80234;DHT22;69712;42.142;24.766;2023-05-13T03:38:12;12.90;53.00
80234;DHT22;69712;42.142;24.766;2023-05-13T03:40:38;12.90;53.40
80234;DHT22;69712;42.142;24.766;2023-05-13T03:43:04;12.80;54.10
80234;DHT22;69712;42.142;24.766;2023-05-13T03:45:29;12.40;54.70
80234;DHT22;69712;42.142;24.766;2023-05-13T03:47:55;12.30;55.50
80234;DHT22;69712;42.142;24.766;2023-05-13T03:50:22;12.30;55.10
80234;DHT22;69712;42.142;24.766;2023-05-13T03:52:47;12.40;55.20
80234;DHT22;69712;42.142;24.766;2023-05-13T03:55:13;12.50;55.20
80234;DHT22;69712;42.142;24.766;2023-05-13T03:57:41;12.70;55.00
80234;DHT22;69712;42.142;24.766;2023-05-13T04:00:07;12.80;53.60
80234;DHT22;69712;42.142;24.766;2023-05-13T04:02:53;12.50;54.10
80234;DHT22;69712;42.142;24.766;2023-05-13T04:05:22;12.50;54.40
80234;DHT22;69712;42.142;24.766;2023-05-13T04:07:47;12.60;62.40
80234;DHT22;69712;42.142;24.766;2023-05-13T04:10:13;12.70;57.00
80234;DHT22;69712;42.142;24.766;2023-05-13T04:12:39;12.70;56.90
80234;DHT22;69712;42.142;24.766;2023-05-13T04:15:05;12.80;57.90
80234;DHT22;69712;42.142;24.766;2023-05-13T04:17:31;12.80;57.10
80234;DHT22;69712;42.142;24.766;2023-05-13T04:19:56;12.90;55.70
80234;DHT22;69712;42.142;24.766;2023-05-13T04:22:23;13.00;58.20
80234;DHT22;69712;42.142;24.766;2023-05-13T04:24:49;12.90;55.10
80234;DHT22;69712;42.142;24.766;2023-05-13T04:27:21;13.00;54.50
80234;DHT22;69712;42.142;24.766;2023-05-13T04:29:46;13.00;53.80
80234;DHT22;69712;42.142;24.766;2023-05-13T04:32:12;12.70;54.70
80234;DHT22;69712;42.142;24.766;2023-05-13T04:34:48;12.10;56.20
80234;DHT22;69712;42.142;24.766;2023-05-13T04:37:14;11.60;58.50
80234;DHT22;69712;42.142;24.766;2023-05-13T04:39:41;11.80;58.70
80234;DHT22;69712;42.142;24.766;2023-05-13T04:42:07;12.10;57.90
80234;DHT22;69712;42.142;24.766;2023-05-13T04:44:33;12.30;57.10
80234;DHT22;69712;42.142;24.766;2023-05-13T04:46:59;12.50;57.10
80234;DHT22;69712;42.142;24.766;2023-05-13T04:49:25;12.50;56.70
80234;DHT22;69712;42.142;24.766;2023-05-13T04:51:51;12.50;56.90
80234;DHT22;69712;42.142;24.766;2023-05-13T04:54:19;12.80;56.20
80234;DHT22;69712;42.142;24.766;2023-05-13T04:56:45;12.90;56.00
80234;DHT22;69712;42.142;24.766;2023-05-13T04:59:11;13.00;55.80
80234;DHT22;69712;42.142;24.766;2023-05-13T05:01:36;13.20;55.70
80234;DHT22;69712;42.142;24.766;2023-05-13T05:04:03;13.30;55.50
80234;DHT22;69712;42.142;24.766;2023-05-13T05:06:29;13.40;55.40
80234;DHT22;69712;42.142;24.766;2023-05-13T05:08:55;13.30;54.60
80234;DHT22;69712;42.142;24.766;2023-05-13T05:11:21;13.30;55.20
80234;DHT22;69712;42.142;24.766;2023-05-13T05:13:47;13.50;55.30
80234;DHT22;69712;42.142;24.766;2023-05-13T05:16:12;13.70;55.00
80234;DHT22;69712;42.142;24.766;2023-05-13T05:18:38;13.80;54.60
80234;DHT22;69712;42.142;24.766;2023-05-13T05:21:06;14.00;54.10
80234;DHT22;69712;42.142;24.766;2023-05-13T05:23:31;13.90;54.50
80234;DHT22;69712;42.142;24.766;2023-05-13T05:25:57;14.00;54.80
80234;DHT22;69712;42.142;24.766;2023-05-13T05:28:24;13.80;55.30
80234;DHT22;69712;42.142;24.766;2023-05-13T05:30:50;13.80;55.50
80234;DHT22;69712;42.142;24.766;2023-05-13T05:33:17;14.10;55.30
80234;DHT22;69712;42.142;24.766;2023-05-13T05:35:43;14.40;54.40
80234;DHT22;69712;42.142;24.766;2023-05-13T05:38:09;14.50;53.80
80234;DHT22;69712;42.142;24.766;2023-05-13T05:40:40;14.50;53.80
80234;DHT22;69712;42.142;24.766;2023-05-13T05:43:06;14.50;53.60
80234;DHT22;69712;42.142;24.766;2023-05-13T05:45:39;14.50;54.60
80234;DHT22;69712;42.142;24.766;2023-05-13T05:48:05;14.70;53.40
80234;DHT22;69712;42.142;24.766;2023-05-13T05:50:31;14.80;53.00
80234;DHT22;69712;42.142;24.766;2023-05-13T05:52:57;15.00;52.70
80234;DHT22;69712;42.142;24.766;2023-05-13T05:55:24;15.10;52.50
80234;DHT22;69712;42.142;24.766;2023-05-13T05:57:50;15.00;52.40
80234;DHT22;69712;42.142;24.766;2023-05-13T06:00:16;14.90;53.90
80234;DHT22;69712;42.142;24.766;2023-05-13T06:02:42;14.80;56.00
80234;DHT22;69712;42.142;24.766;2023-05-13T06:05:08;14.40;53.60
80234;DHT22;69712;42.142;24.766;2023-05-13T06:07:33;14.60;54.20
80234;DHT22;69712;42.142;24.766;2023-05-13T06:09:59;14.80;54.20
80234;DHT22;69712;42.142;24.766;2023-05-13T06:12:25;15.00;52.10
80234;DHT22;69712;42.142;24.766;2023-05-13T06:14:51;15.20;53.00
80234;DHT22;69712;42.142;24.766;2023-05-13T06:17:16;15.60;52.20
80234;DHT22;69712;42.142;24.766;2023-05-13T06:19:42;16.30;49.70
80234;DHT22;69712;42.142;24.766;2023-05-13T06:22:09;18.30;45.40
80234;DHT22;69712;42.142;24.766;2023-05-13T06:24:35;20.00;43.30
80234;DHT22;69712;42.142;24.766;2023-05-13T06:27:01;21.10;39.50
80234;DHT22;69712;42.142;24.766;2023-05-13T06:29:27;22.90;36.30
80234;DHT22;69712;42.142;24.766;2023-05-13T06:31:53;23.10;34.50
80234;DHT22;69712;42.142;24.766;2023-05-13T06:34:19;24.00;35.00
80234;DHT22;69712;42.142;24.766;2023-05-13T06:36:45;24.80;30.20
80234;DHT22;69712;42.142;24.766;2023-05-13T06:39:11;24.40;31.50
80234;DHT22;69712;42.142;24.766;2023-05-13T06:41:38;22.80;33.00
80234;DHT22;69712;42.142;24.766;2023-05-13T06:44:04;22.40;33.90
80234;DHT22;69712;42.142;24.766;2023-05-13T06:46:31;24.00;32.70
80234;DHT22;69712;42.142;24.766;2023-05-13T06:48:57;24.70;31.20
80234;DHT22;69712;42.142;24.766;2023-05-13T06:51:26;23.80;31.00
80234;DHT22;69712;42.142;24.766;2023-05-13T06:53:53;22.90;32.70
80234;DHT22;69712;42.142;24.766;2023-05-13T06:56:19;24.20;31.10
80234;DHT22;69712;42.142;24.766;2023-05-13T06:58:48;24.90;30.00
80234;DHT22;69712;42.142;24.766;2023-05-13T07:01:14;26.00;28.80
80234;DHT22;69712;42.142;24.766;2023-05-13T07:03:41;25.50;29.60
80234;DHT22;69712;42.142;24.766;2023-05-13T07:06:07;25.10;28.60
80234;DHT22;69712;42.142;24.766;2023-05-13T07:08:33;23.40;31.00
80234;DHT22;69712;42.142;24.766;2023-05-13T07:10:58;23.60;31.10
80234;DHT22;69712;42.142;24.766;2023-05-13T07:13:24;23.20;31.90
80234;DHT22;69712;42.142;24.766;2023-05-13T07:15:52;23.20;32.70
80234;DHT22;69712;42.142;24.766;2023-05-13T07:18:17;22.70;32.10
80234;DHT22;69712;42.142;24.766;2023-05-13T07:20:43;22.30;33.70
80234;DHT22;69712;42.142;24.766;2023-05-13T07:23:09;22.30;36.20
80234;DHT22;69712;42.142;24.766;2023-05-13T07:25:35;23.10;34.00
80234;DHT22;69712;42.142;24.766;2023-05-13T07:28:00;23.50;32.70
80234;DHT22;69712;42.142;24.766;2023-05-13T07:30:26;24.20;31.50
80234;DHT22;69712;42.142;24.766;2023-05-13T07:32:52;24.30;29.80
80234;DHT22;69712;42.142;24.766;2023-05-13T07:35:18;26.70;28.30
80234;DHT22;69712;42.142;24.766;2023-05-13T07:37:44;27.90;26.70
80234;DHT22;69712;42.142;24.766;2023-05-13T07:40:10;28.80;26.50
80234;DHT22;69712;42.142;24.766;2023-05-13T07:42:36;29.40;25.60
80234;DHT22;69712;42.142;24.766;2023-05-13T07:45:03;29.30;25.00
80234;DHT22;69712;42.142;24.766;2023-05-13T07:47:29;28.70;25.20
80234;DHT22;69712;42.142;24.766;2023-05-13T07:49:56;28.60;25.30
80234;DHT22;69712;42.142;24.766;2023-05-13T07:52:22;28.10;26.10
80234;DHT22;69712;42.142;24.766;2023-05-13T07:54:48;29.40;25.00
80234;DHT22;69712;42.142;24.766;2023-05-13T07:57:14;29.40;25.00
80234;DHT22;69712;42.142;24.766;2023-05-13T07:59:40;27.70;25.10
80234;DHT22;69712;42.142;24.766;2023-05-13T08:02:06;28.30;25.30
80234;DHT22;69712;42.142;24.766;2023-05-13T08:04:32;27.40;25.60
80234;DHT22;69712;42.142;24.766;2023-05-13T08:06:59;26.20;27.70
80234;DHT22;69712;42.142;24.766;2023-05-13T08:09:25;26.00;28.00
80234;DHT22;69712;42.142;24.766;2023-05-13T08:11:50;27.20;26.80
80234;DHT22;69712;42.142;24.766;2023-05-13T08:14:17;27.50;25.80
80234;DHT22;69712;42.142;24.766;2023-05-13T08:16:42;28.10;25.80
80234;DHT22;69712;42.142;24.766;2023-05-13T08:19:08;27.70;25.50
80234;DHT22;69712;42.142;24.766;2023-05-13T08:21:34;27.30;26.20
80234;DHT22;69712;42.142;24.766;2023-05-13T08:24:00;29.10;24.50
80234;DHT22;69712;42.142;24.766;2023-05-13T08:26:26;28.20;23.50
80234;DHT22;69712;42.142;24.766;2023-05-13T08:28:52;25.90;25.60
80234;DHT22;69712;42.142;24.766;2023-05-13T08:31:17;27.30;26.70
80234;DHT22;69712;42.142;24.766;2023-05-13T08:33:43;26.30;24.70
80234;DHT22;69712;42.142;24.766;2023-05-13T08:36:11;25.00;26.60
80234;DHT22;69712;42.142;24.766;2023-05-13T08:38:37;25.20;25.90
80234;DHT22;69712;42.142;24.766;2023-05-13T08:41:03;25.60;26.30
80234;DHT22;69712;42.142;24.766;2023-05-13T08:43:31;25.80;25.30
80234;DHT22;69712;42.142;24.766;2023-05-13T08:46:02;25.70;24.90
80234;DHT22;69712;42.142;24.766;2023-05-13T08:48:30;26.00;25.10
80234;DHT22;69712;42.142;24.766;2023-05-13T08:50:56;27.40;24.10
80234;DHT22;69712;42.142;24.766;2023-05-13T08:53:24;28.10;23.40
80234;DHT22;69712;42.142;24.766;2023-05-13T08:55:51;28.10;22.70
80234;DHT22;69712;42.142;24.766;2023-05-13T08:58:17;29.50;22.70
80234;DHT22;69712;42.142;24.766;2023-05-13T09:00:43;30.10;21.10
80234;DHT22;69712;42.142;24.766;2023-05-13T09:03:10;30.20;21.10
80234;DHT22;69712;42.142;24.766;2023-05-13T09:05:37;30.50;21.50
80234;DHT22;69712;42.142;24.766;2023-05-13T09:08:06;31.00;22.00
80234;DHT22;69712;42.142;24.766;2023-05-13T09:10:36;31.40;21.60
80234;DHT22;69712;42.142;24.766;2023-05-13T09:13:02;31.40;21.60
80234;DHT22;69712;42.142;24.766;2023-05-13T09:15:29;33.30;20.70
80234;DHT22;69712;42.142;24.766;2023-05-13T09:18:05;33.30;20.70
80234;DHT22;69712;42.142;24.766;2023-05-13T09:20:32;32.10;20.70
80234;DHT22;69712;42.142;24.766;2023-05-13T09:23:06;31.50;20.60
80234;DHT22;69712;42.142;24.766;2023-05-13T09:25:33;32.20;20.40
80234;DHT22;69712;42.142;24.766;2023-05-13T09:28:00;30.30;21.20
80234;DHT22;69712;42.142;24.766;2023-05-13T09:30:32;29.80;21.40
80234;DHT22;69712;42.142;24.766;2023-05-13T09:33:07;28.30;22.90
80234;DHT22;69712;42.142;24.766;2023-05-13T09:35:34;29.60;21.30
80234;DHT22;69712;42.142;24.766;2023-05-13T09:38:00;31.20;20.60
80234;DHT22;69712;42.142;24.766;2023-05-13T09:40:26;31.40;20.60
80234;DHT22;69712;42.142;24.766;2023-05-13T09:42:56;30.60;20.40
80234;DHT22;69712;42.142;24.766;2023-05-13T09:45:22;31.10;20.70
80234;DHT22;69712;42.142;24.766;2023-05-13T09:47:50;31.10;20.40
80234;DHT22;69712;42.142;24.766;2023-05-13T09:50:17;31.90;20.00
80234;DHT22;69712;42.142;24.766;2023-05-13T09:52:44;30.20;20.70
80234;DHT22;69712;42.142;24.766;2023-05-13T09:55:10;30.10;21.10
80234;DHT22;69712;42.142;24.766;2023-05-13T09:57:37;28.90;21.80
80234;DHT22;69712;42.142;24.766;2023-05-13T10:00:04;28.20;23.00
80234;DHT22;69712;42.142;24.766;2023-05-13T10:02:30;27.40;22.40
80234;DHT22;69712;42.142;24.766;2023-05-13T10:04:56;27.40;23.40
80234;DHT22;69712;42.142;24.766;2023-05-13T10:07:23;26.40;24.80
80234;DHT22;69712;42.142;24.766;2023-05-13T10:09:56;26.10;24.60
80234;DHT22;69712;42.142;24.766;2023-05-13T10:12:25;25.40;24.70
80234;DHT22;69712;42.142;24.766;2023-05-13T10:14:52;25.20;25.00
80234;DHT22;69712;42.142;24.766;2023-05-13T10:17:23;25.70;25.30
80234;DHT22;69712;42.142;24.766;2023-05-13T10:19:52;25.60;24.70
80234;DHT22;69712;42.142;24.766;2023-05-13T10:24:50;25.70;25.10
80234;DHT22;69712;42.142;24.766;2023-05-13T10:27:17;23.90;26.20
80234;DHT22;69712;42.142;24.766;2023-05-13T10:29:44;24.00;26.60
80234;DHT22;69712;42.142;24.766;2023-05-13T10:32:11;23.40;26.60
80234;DHT22;69712;42.142;24.766;2023-05-13T10:34:38;23.90;27.50
80234;DHT22;69712;42.142;24.766;2023-05-13T10:37:32;24.10;26.80
80234;DHT22;69712;42.142;24.766;2023-05-13T10:40:20;24.00;26.50
80234;DHT22;69712;42.142;24.766;2023-05-13T10:45:26;22.70;28.30
80234;DHT22;69712;42.142;24.766;2023-05-13T10:47:53;23.00;28.00
80234;DHT22;69712;42.142;24.766;2023-05-13T10:50:25;23.80;27.40
80234;DHT22;69712;42.142;24.766;2023-05-13T10:52:55;23.90;27.20
80234;DHT22;69712;42.142;24.766;2023-05-13T10:55:22;24.10;27.20
80234;DHT22;69712;42.142;24.766;2023-05-13T10:58:07;24.10;27.10
80234;DHT22;69712;42.142;24.766;2023-05-13T11:00:34;23.80;26.60
80234;DHT22;69712;42.142;24.766;2023-05-13T11:05:47;24.10;27.10
80234;DHT22;69712;42.142;24.766;2023-05-13T11:08:45;25.10;26.20
80234;DHT22;69712;42.142;24.766;2023-05-13T11:14:06;26.30;25.10
80234;DHT22;69712;42.142;24.766;2023-05-13T11:16:36;26.00;25.50
80234;DHT22;69712;42.142;24.766;2023-05-13T11:19:03;26.90;25.00
80234;DHT22;69712;42.142;24.766;2023-05-13T11:21:34;28.80;23.10
80234;DHT22;69712;42.142;24.766;2023-05-13T11:24:02;28.10;23.90
80234;DHT22;69712;42.142;24.766;2023-05-13T11:26:55;27.00;24.30
80234;DHT22;69712;42.142;24.766;2023-05-13T11:29:27;26.30;24.60
80234;DHT22;69712;42.142;24.766;2023-05-13T11:31:54;26.90;25.40
80234;DHT22;69712;42.142;24.766;2023-05-13T11:34:22;27.40;24.30
80234;DHT22;69712;42.142;24.766;2023-05-13T11:37:10;28.60;23.80
80234;DHT22;69712;42.142;24.766;2023-05-13T11:39:38;28.30;23.40
80234;DHT22;69712;42.142;24.766;2023-05-13T11:42:10;27.20;25.20
80234;DHT22;69712;42.142;24.766;2023-05-13T11:44:43;25.50;25.50
80234;DHT22;69712;42.142;24.766;2023-05-13T11:47:09;23.70;29.70
80234;DHT22;69712;42.142;24.766;2023-05-13T11:49:44;25.00;28.20
80234;DHT22;69712;42.142;24.766;2023-05-13T11:52:13;27.90;25.80
80234;DHT22;69712;42.142;24.766;2023-05-13T11:54:59;29.90;23.70
80234;DHT22;69712;42.142;24.766;2023-05-13T11:57:30;31.40;22.00
80234;DHT22;69712;42.142;24.766;2023-05-13T12:00:00;30.70;21.90
80234;DHT22;69712;42.142;24.766;2023-05-13T12:02:29;29.20;23.60
80234;DHT22;69712;42.142;24.766;2023-05-13T12:04:58;28.40;23.30
80234;DHT22;69712;42.142;24.766;2023-05-13T12:07:25;27.60;24.30
80234;DHT22;69712;42.142;24.766;2023-05-13T12:09:54;27.40;24.80
80234;DHT22;69712;42.142;24.766;2023-05-13T12:12:20;27.00;25.00
80234;DHT22;69712;42.142;24.766;2023-05-13T12:14:46;25.30;26.10
80234;DHT22;69712;42.142;24.766;2023-05-13T12:17:15;25.20;26.40
80234;DHT22;69712;42.142;24.766;2023-05-13T12:20:10;25.10;27.20
80234;DHT22;69712;42.142;24.766;2023-05-13T12:22:49;25.30;26.50
80234;DHT22;69712;42.142;24.766;2023-05-13T12:30:39;25.00;26.60
80234;DHT22;69712;42.142;24.766;2023-05-13T12:33:11;24.20;27.00
80234;DHT22;69712;42.142;24.766;2023-05-13T12:35:37;23.90;28.50
80234;DHT22;69712;42.142;24.766;2023-05-13T12:38:04;24.80;27.20
80234;DHT22;69712;42.142;24.766;2023-05-13T12:40:30;25.40;26.70
80234;DHT22;69712;42.142;24.766;2023-05-13T12:43:00;24.70;26.80
80234;DHT22;69712;42.142;24.766;2023-05-13T12:45:30;24.00;27.80
80234;DHT22;69712;42.142;24.766;2023-05-13T12:47:57;24.00;27.90
80234;DHT22;69712;42.142;24.766;2023-05-13T12:50:23;23.30;29.10
80234;DHT22;69712;42.142;24.766;2023-05-13T12:52:49;23.30;28.90
80234;DHT22;69712;42.142;24.766;2023-05-13T12:55:16;23.00;29.40
80234;DHT22;69712;42.142;24.766;2023-05-13T12:57:42;22.60;30.00
80234;DHT22;69712;42.142;24.766;2023-05-13T13:00:08;22.10;30.80
80234;DHT22;69712;42.142;24.766;2023-05-13T13:02:38;21.60;31.20
80234;DHT22;69712;42.142;24.766;2023-05-13T13:05:05;21.40;31.30
80234;DHT22;69712;42.142;24.766;2023-05-13T13:07:30;22.10;31.10
80234;DHT22;69712;42.142;24.766;2023-05-13T13:09:56;22.50;30.80
80234;DHT22;69712;42.142;24.766;2023-05-13T13:12:22;22.50;30.00
80234;DHT22;69712;42.142;24.766;2023-05-13T13:14:48;21.80;31.20
80234;DHT22;69712;42.142;24.766;2023-05-13T13:17:13;21.90;31.50
80234;DHT22;69712;42.142;24.766;2023-05-13T13:19:39;22.30;30.90
80234;DHT22;69712;42.142;24.766;2023-05-13T13:22:05;22.40;30.30
80234;DHT22;69712;42.142;24.766;2023-05-13T13:24:30;22.20;31.90
80234;DHT22;69712;42.142;24.766;2023-05-13T13:26:56;22.00;31.10
80234;DHT22;69712;42.142;24.766;2023-05-13T13:29:22;21.90;31.40
80234;DHT22;69712;42.142;24.766;2023-05-13T13:31:48;22.10;31.60
80234;DHT22;69712;42.142;24.766;2023-05-13T13:34:14;22.20;31.60
80234;DHT22;69712;42.142;24.766;2023-05-13T13:36:39;22.70;30.90
80234;DHT22;69712;42.142;24.766;2023-05-13T13:39:05;22.70;30.70
80234;DHT22;69712;42.142;24.766;2023-05-13T13:41:31;23.60;29.70
80234;DHT22;69712;42.142;24.766;2023-05-13T13:43:56;24.70;28.50
80234;DHT22;69712;42.142;24.766;2023-05-13T13:46:22;24.70;27.80
80234;DHT22;69712;42.142;24.766;2023-05-13T13:48:48;24.50;27.80
80234;DHT22;69712;42.142;24.766;2023-05-13T13:51:13;23.60;29.30
80234;DHT22;69712;42.142;24.766;2023-05-13T13:53:39;22.90;30.40
80234;DHT22;69712;42.142;24.766;2023-05-13T13:56:05;22.40;31.70
80234;DHT22;69712;42.142;24.766;2023-05-13T13:58:31;22.40;31.50
80234;DHT22;69712;42.142;24.766;2023-05-13T14:00:57;22.30;32.00
80234;DHT22;69712;42.142;24.766;2023-05-13T14:03:22;21.90;32.70
80234;DHT22;69712;42.142;24.766;2023-05-13T14:05:48;21.70;33.00
80234;DHT22;69712;42.142;24.766;2023-05-13T14:08:14;21.80;33.30
80234;DHT22;69712;42.142;24.766;2023-05-13T14:10:40;22.00;33.10
80234;DHT22;69712;42.142;24.766;2023-05-13T14:13:05;21.80;33.10
80234;DHT22;69712;42.142;24.766;2023-05-13T14:15:31;21.80;32.50
80234;DHT22;69712;42.142;24.766;2023-05-13T14:18:00;21.40;33.70
80234;DHT22;69712;42.142;24.766;2023-05-13T14:20:26;21.50;33.50
80234;DHT22;69712;42.142;24.766;2023-05-13T14:22:53;21.50;33.30
80234;DHT22;69712;42.142;24.766;2023-05-13T14:25:18;21.20;34.70
80234;DHT22;69712;42.142;24.766;2023-05-13T14:27:44;21.30;34.70
80234;DHT22;69712;42.142;24.766;2023-05-13T14:30:10;21.30;33.90
80234;DHT22;69712;42.142;24.766;2023-05-13T14:32:36;21.50;34.00
80234;DHT22;69712;42.142;24.766;2023-05-13T14:35:02;21.30;33.50
80234;DHT22;69712;42.142;24.766;2023-05-13T14:37:27;21.40;34.20
80234;DHT22;69712;42.142;24.766;2023-05-13T14:39:53;21.40;33.70
80234;DHT22;69712;42.142;24.766;2023-05-13T14:42:18;21.40;33.40
80234;DHT22;69712;42.142;24.766;2023-05-13T14:44:45;21.40;34.00
80234;DHT22;69712;42.142;24.766;2023-05-13T14:47:11;21.40;33.70
80234;DHT22;69712;42.142;24.766;2023-05-13T14:49:36;21.60;33.30
80234;DHT22;69712;42.142;24.766;2023-05-13T14:52:02;21.80;33.10
80234;DHT22;69712;42.142;24.766;2023-05-13T14:54:28;22.00;32.80
80234;DHT22;69712;42.142;24.766;2023-05-13T14:57:00;22.10;32.60
80234;DHT22;69712;42.142;24.766;2023-05-13T14:59:26;22.10;32.50
80234;DHT22;69712;42.142;24.766;2023-05-13T15:01:53;21.50;33.20
80234;DHT22;69712;42.142;24.766;2023-05-13T15:04:19;21.30;34.20
80234;DHT22;69712;42.142;24.766;2023-05-13T15:06:45;21.40;34.20
80234;DHT22;69712;42.142;24.766;2023-05-13T15:09:11;21.30;33.70
80234;DHT22;69712;42.142;24.766;2023-05-13T15:11:37;21.30;34.20
80234;DHT22;69712;42.142;24.766;2023-05-13T15:14:03;21.40;33.60
80234;DHT22;69712;42.142;24.766;2023-05-13T15:16:30;21.30;34.00
80234;DHT22;69712;42.142;24.766;2023-05-13T15:18:56;21.40;34.00
80234;DHT22;69712;42.142;24.766;2023-05-13T15:21:21;21.30;33.80
80234;DHT22;69712;42.142;24.766;2023-05-13T15:23:47;21.30;33.90
80234;DHT22;69712;42.142;24.766;2023-05-13T15:26:13;21.10;34.30
80234;DHT22;69712;42.142;24.766;2023-05-13T15:28:39;21.00;34.60
80234;DHT22;69712;42.142;24.766;2023-05-13T15:31:05;21.00;34.80
80234;DHT22;69712;42.142;24.766;2023-05-13T15:33:30;21.20;34.70
80234;DHT22;69712;42.142;24.766;2023-05-13T15:35:57;21.20;34.40
80234;DHT22;69712;42.142;24.766;2023-05-13T15:38:23;21.10;34.80
80234;DHT22;69712;42.142;24.766;2023-05-13T15:40:49;20.80;36.10